Time;durP1;ratioP1;P1;durP2;ratioP2;P2;SDS_P1;SDS_P2;PMS_P1;PMS_P2;Temp;Humidity;BMP_temperature;BMP_pressure;BME280_temperature;BME280_humidity;BME280_pressure;Samples;Min_cycle;Max_cycle;Signal;HPM_P1;HPM_P2
2022/05/29 00:01:42;;;;;;;14.87;14.17;;;;;;;11.29;100.00;102271.15;1794815;77;938741;-73
2022/05/29 00:04:12;;;;;;;15.80;14.98;;;;;;;11.49;100.00;102279.78;1798319;76;940896;-72
2022/05/29 00:09:52;;;;;;;17.57;16.80;;;;;;;11.19;100.00;102266.27;1836436;77;86088;-70
2022/05/29 00:12:23;;;;;;;17.20;16.40;;;;;;;11.05;100.00;102269.09;1781714;79;938984;-70
2022/05/29 00:14:54;;;;;;;18.17;17.27;;;;;;;11.07;100.00;102259.12;1769634;79;950721;-72
2022/05/29 00:17:24;;;;;;;19.20;18.10;;;;;;;11.02;100.00;102257.64;1781574;79;941039;-72
2022/05/29 00:19:54;;;;;;;20.43;19.25;;;;;;;10.98;100.00;102258.70;1769809;79;950653;-72
2022/05/29 00:22:25;;;;;;;22.00;20.70;;;;;;;10.84;100.00;102258.20;1781690;79;940760;-70
2022/05/29 00:24:55;;;;;;;22.03;20.97;;;;;;;10.81;100.00;102254.54;1771012;78;940779;-70
2022/05/29 00:27:25;;;;;;;23.80;22.60;;;;;;;10.70;100.00;102254.05;1788053;78;940822;-72
2022/05/29 00:29:55;;;;;;;23.32;21.97;;;;;;;10.68;100.00;102257.66;1765065;79;940760;-72
2022/05/29 00:32:26;;;;;;;24.33;23.03;;;;;;;10.75;100.00;102249.98;1776724;79;939914;-72
2022/05/29 00:34:56;;;;;;;24.30;23.05;;;;;;;10.75;100.00;102251.37;1764868;79;940810;-70
2022/05/29 00:37:26;;;;;;;23.80;22.50;;;;;;;10.72;100.00;102253.81;1776696;79;940806;-70
2022/05/29 00:43:03;;;;;;;20.80;19.77;;;;;;;10.82;100.00;102247.05;1995339;69;39554;-73
2022/05/29 00:45:36;;;;;;;20.53;19.53;;;;;;;10.78;100.00;102250.04;1922918;73;936794;-73
2022/05/29 00:51:15;;;;;;;21.40;20.20;;;;;;;10.73;100.00;102242.45;1891509;74;86369;-71
2022/05/29 00:53:45;;;;;;;21.10;20.10;;;;;;;10.60;100.00;102241.94;1799569;78;936761;-73
2022/05/29 00:56:15;;;;;;;21.37;20.17;;;;;;;10.68;100.00;102238.74;1794877;77;940716;-71
2022/05/29 00:58:47;;;;;;;21.30;20.10;;;;;;;10.65;100.00;102240.64;1780333;79;939055;-71
2022/05/29 01:01:17;;;;;;;21.07;20.07;;;;;;;10.94;100.00;102245.86;1771975;79;940820;-72
2022/05/29 01:06:54;;;;;;;20.77;19.77;;;;;;;10.77;100.00;102242.24;1986685;69;39377;-72
2022/05/29 01:12:37;;;;;;;21.60;20.50;;;;;;;11.07;100.00;102229.92;1893714;74;86633;-71
2022/05/29 01:15:11;;;;;;;22.20;21.00;;;;;;;10.85;100.00;102232.09;1792520;76;938705;-74
2022/05/29 01:17:45;;;;;;;22.83;21.43;;;;;;;10.72;100.00;102225.48;1805232;77;938919;-73
2022/05/29 01:23:58;;;;;;;22.50;21.40;;;;;;;10.77;100.00;102233.91;1845769;76;86326;-71
2022/05/29 01:26:58;;;;;;;23.40;22.20;;;;;;;10.87;100.00;102236.83;1805980;76;938675;-73
2022/05/29 01:29:33;;;;;;;24.60;23.40;;;;;;;10.82;100.00;102235.93;1796573;78;940966;-71
2022/05/29 01:35:15;;;;;;;26.37;24.97;;;;;;;10.85;100.00;102229.31;1978047;71;86401;-70
2022/05/29 01:37:51;;;;;;;25.77;24.37;;;;;;;10.72;100.00;102235.20;1863430;74;936712;-70
2022/05/29 01:40:28;;;;;;;24.50;23.07;;;;;;;10.77;100.00;102233.91;1858683;75;940807;-71
2022/05/29 01:43:01;;;;;;;24.40;23.20;;;;;;;10.76;100.00;102233.61;1860300;75;940883;-73
2022/05/29 01:48:46;;;;;;;24.07;22.87;;;;;;;10.84;100.00;102234.56;1855652;75;86006;-72
2022/05/29 01:51:19;;;;;;;24.30;23.03;;;;;;;10.70;100.00;102236.53;1811652;77;939270;-72
2022/05/29 01:53:52;;;;;;;24.83;23.57;;;;;;;10.66;100.00;102234.81;1797113;78;947842;-72
2022/05/29 01:56:25;;;;;;;25.43;24.07;;;;;;;10.58;100.00;102238.02;1804786;77;941085;-71
2022/05/29 01:58:59;;;;;;;24.90;23.57;;;;;;;10.57;100.00;102238.28;1784698;77;940886;-71
2022/05/29 02:04:40;;;;;;;26.83;25.33;;;;;;;10.43;100.00;102237.76;1887884;75;86297;-72
2022/05/29 02:10:25;;;;;;;25.80;24.33;;;;;;;10.30;100.00;102236.14;1894792;75;86435;-73
2022/05/29 02:16:06;;;;;;;27.50;25.87;;;;;;;10.20;100.00;102236.48;1982241;69;39383;-73
2022/05/29 02:21:47;;;;;;;28.07;26.57;;;;;;;10.16;100.00;102240.84;1848133;76;86073;-71
2022/05/29 02:24:20;;;;;;;27.27;25.87;;;;;;;10.06;100.00;102244.23;1801355;76;938791;-71
2022/05/29 02:26:53;;;;;;;27.23;25.63;;;;;;;10.23;100.00;102241.53;1779068;77;941612;-71
2022/05/29 02:29:23;;;;;;;27.10;25.73;;;;;;;10.10;100.00;102234.89;1793747;77;941045;-71
2022/05/29 02:35:07;;;;;;;30.10;28.30;;;;;;;10.21;100.00;102218.73;1988067;69;39810;-72
2022/05/29 02:37:42;;;;;;;29.90;28.27;;;;;;;10.10;100.00;102225.98;1923908;73;936826;-73
2022/05/29 02:40:19;;;;;;;30.47;28.73;;;;;;;10.26;100.00;102212.73;1915787;73;940938;-72
2022/05/29 02:42:54;;;;;;;28.70;27.30;;;;;;;10.10;100.00;102206.55;1837187;75;940938;-72
2022/05/29 02:45:31;;;;;;;31.00;29.40;;;;;;;10.13;100.00;102196.36;1925213;73;940765;-71
2022/05/29 02:48:05;;;;;;;29.97;28.47;;;;;;;10.29;100.00;102191.94;1910759;73;945788;-71
2022/05/29 02:50:41;;;;;;;30.27;28.67;;;;;;;10.44;100.00;102185.25;1855478;75;939074;-73
2022/05/29 02:53:13;;;;;;;30.17;28.57;;;;;;;10.38;100.00;102182.95;1871077;74;941112;-72
2022/05/29 02:55:45;;;;;;;31.03;29.30;;;;;;;10.25;100.00;102179.66;1848300;76;938877;-72
2022/05/29 02:58:19;;;;;;;30.67;29.07;;;;;;;10.28;100.00;102184.70;1849202;75;940881;-72
2022/05/29 03:01:17;;;;;;;30.43;28.83;;;;;;;10.34;100.00;102183.70;1912970;73;940902;-73
2022/05/29 03:04:04;;;;;;;31.47;29.70;;;;;;;10.19;100.00;102175.94;1852682;74;940009;-71
2022/05/29 03:09:54;;;;;;;32.57;30.70;;;;;;;10.39;100.00;102179.09;1823799;77;86380;-72
2022/05/29 03:12:30;;;;;;;32.70;31.00;;;;;;;10.50;100.00;102182.32;1760206;79;938723;-74
2022/05/29 03:18:32;;;;;;;32.30;30.60;;;;;;;10.38;100.00;102177.39;1898490;75;86292;-73
2022/05/29 03:24:16;;;;;;;33.17;31.37;;;;;;;10.41;100.00;102173.26;1967011;69;39743;-73
2022/05/29 03:29:57;;;;;;;35.90;34.10;;;;;;;10.30;100.00;102178.36;1988209;69;39574;-74
2022/05/29 03:32:29;;;;;;;41.93;39.53;;;;;;;10.18;100.00;102177.59;1924063;73;938715;-73
2022/05/29 03:34:59;;;;;;;40.00;37.87;;;;;;;10.28;100.00;102177.21;1829575;75;940805;-73
2022/05/29 03:37:30;;;;;;;39.73;37.53;;;;;;;10.24;100.00;102174.64;1907142;73;940824;-72
2022/05/29 03:40:00;;;;;;;41.77;39.58;;;;;;;10.43;100.00;102167.77;1872586;74;940851;-73
2022/05/29 03:42:31;;;;;;;40.40;38.17;;;;;;;10.17;100.00;102167.03;1919803;73;941028;-72
2022/05/29 03:45:01;;;;;;;37.95;35.73;;;;;;;10.32;100.00;102170.59;1869925;74;941138;-72
2022/05/29 03:47:31;;;;;;;39.45;37.20;;;;;;;10.73;100.00;102163.25;1864301;74;941022;-72
2022/05/29 03:50:01;;;;;;;41.23;39.08;;;;;;;10.32;100.00;102164.50;1892852;73;940768;-72
2022/05/29 03:52:32;;;;;;;39.23;37.13;;;;;;;10.21;100.00;102164.05;1887123;74;941192;-72
2022/05/29 03:55:03;;;;;;;40.05;37.85;;;;;;;10.31;100.00;102164.20;1874284;75;940667;-72
2022/05/29 03:57:33;;;;;;;40.93;38.73;;;;;;;10.31;100.00;102166.98;1917341;73;938803;-74
2022/05/29 04:00:03;;;;;;;38.50;36.40;;;;;;;10.14;100.00;102155.55;1873927;75;940030;-73
2022/05/29 04:02:33;;;;;;;37.80;35.87;;;;;;;10.27;100.00;102149.14;1814907;75;938673;-72
2022/05/29 04:05:05;;;;;;;38.45;36.35;;;;;;;9.99;100.00;102150.02;1886209;74;940834;-72
2022/05/29 04:16:39;;;;;;;41.53;39.33;;;;;;;9.93;100.00;102143.21;1870323;75;86012;-70
2022/05/29 04:19:10;;;;;;;40.53;38.10;;;;;;;10.18;100.00;102148.44;1817934;76;936763;-72
2022/05/29 04:21:41;;;;;;;38.53;36.47;;;;;;;10.25;100.00;102150.49;1816548;76;938934;-72
2022/05/29 04:24:11;;;;;;;41.90;39.60;;;;;;;10.25;100.00;102144.94;1820063;77;941558;-72
2022/05/29 04:26:41;;;;;;;43.10;40.70;;;;;;;10.03;100.00;102149.80;1834431;76;938839;-70
2022/05/29 04:29:11;;;;;;;45.10;42.70;;;;;;;9.97;100.00;102149.95;1816977;75;1036329;-72
2022/05/29 04:32:59;;;;;;;43.67;41.37;;;;;;;10.05;100.00;102146.79;1822716;75;938858;-72
2022/05/29 04:34:14;;;;;;;36.80;34.90;;;;;;;10.08;100.00;102148.21;1819357;75;940998;-70
2022/05/29 04:36:45;;;;;;;35.03;33.13;;;;;;;10.61;100.00;102138.86;1806234;76;939028;-69
2022/05/29 04:39:15;;;;;;;34.20;32.33;;;;;;;10.72;100.00;102135.16;1844501;75;940919;-70
2022/05/29 04:41:46;;;;;;;35.90;33.90;;;;;;;10.70;100.00;102130.39;1841665;75;939110;-70
2022/05/29 04:44:16;;;;;;;37.37;35.47;;;;;;;10.84;100.00;102144.23;1843019;75;941112;-72
2022/05/29 04:46:46;;;;;;;36.60;34.70;;;;;;;10.68;100.00;102132.59;1836528;76;939069;-71
2022/05/29 04:49:16;;;;;;;34.27;32.30;;;;;;;10.69;100.00;102134.83;1831957;76;940951;-70
2022/05/29 04:54:52;;;;;;;32.63;31.03;;;;;;;10.99;100.00;102131.11;2058696;69;33248;-73
2022/05/29 04:57:25;;;;;;;33.73;31.93;;;;;;;10.82;100.00;102140.88;2012944;70;26336;-73
2022/05/29 04:59:55;;;;;;;34.90;33.10;;;;;;;10.82;100.00;102133.08;2017091;70;26216;-71
2022/05/29 05:02:25;;;;;;;33.30;31.50;;;;;;;10.78;100.00;102130.52;1943472;73;26694;-72
2022/05/29 05:04:55;;;;;;;32.80;31.13;;;;;;;10.78;100.00;102128.55;1932117;73;26313;-72
2022/05/29 05:07:27;;;;;;;31.97;30.17;;;;;;;10.79;100.00;102120.52;1942516;72;26679;-71
2022/05/29 05:09:57;;;;;;;32.33;30.60;;;;;;;10.93;100.00;102123.23;1937071;73;26248;-72
2022/05/29 05:12:27;;;;;;;35.50;33.60;;;;;;;10.91;100.00;102115.69;1932324;74;26673;-71
2022/05/29 05:14:57;;;;;;;33.70;31.87;;;;;;;10.76;100.00;102118.80;1932980;73;26874;-71
2022/05/29 05:17:31;;;;;;;36.33;34.30;;;;;;;10.88;100.00;102112.04;1933501;74;26776;-73
2022/05/29 05:20:02;;;;;;;36.00;34.17;;;;;;;10.90;100.00;102111.25;1907340;74;26226;-71
2022/05/29 05:22:34;;;;;;;34.27;32.37;;;;;;;11.04;100.00;102111.69;1907720;75;26246;-72
2022/05/29 05:25:06;;;;;;;32.67;30.97;;;;;;;11.14;100.00;102110.98;1907905;75;26242;-73
2022/05/29 05:27:36;;;;;;;32.97;31.07;;;;;;;11.30;100.00;102114.25;1894117;73;26309;-70
2022/05/29 05:33:15;;;;;;;34.20;32.13;;;;;;;11.39;100.00;102115.47;2045019;69;32615;-72
2022/05/29 05:35:45;;;;;;;32.07;30.47;;;;;;;11.35;100.00;102115.70;1942128;73;26212;-72
2022/05/29 05:38:16;;;;;;;33.47;31.67;;;;;;;11.41;100.00;102112.73;1938343;73;26211;-70
2022/05/29 05:40:47;;;;;;;32.73;30.93;;;;;;;11.50;100.00;102109.50;1972121;72;26689;-72
2022/05/29 05:43:19;;;;;;;33.93;32.17;;;;;;;11.46;100.00;102106.40;1937034;74;26231;-71
2022/05/29 05:45:49;;;;;;;31.77;30.10;;;;;;;11.46;100.00;102110.57;1935024;73;26923;-71
2022/05/29 05:48:19;;;;;;;30.90;29.30;;;;;;;11.63;100.00;102102.98;2009640;70;26355;-71
2022/05/29 05:50:49;;;;;;;32.23;30.50;;;;;;;11.64;100.00;102105.17;2028546;70;26232;-70
2022/05/29 05:53:19;;;;;;;32.90;31.10;;;;;;;11.78;100.00;102103.16;2019831;70;26808;-72
2022/05/29 05:55:49;;;;;;;31.90;30.10;;;;;;;11.64;100.00;102100.45;2016634;70;26903;-72
2022/05/29 05:58:19;;;;;;;30.93;29.33;;;;;;;11.57;100.00;102102.62;2015818;70;26638;-71
2022/05/29 06:00:50;;;;;;;30.60;28.80;;;;;;;11.64;100.00;102096.28;2020873;70;26351;-71
2022/05/29 06:03:21;;;;;;;30.57;28.97;;;;;;;11.68;100.00;102090.48;2015239;70;26864;-71
2022/05/29 06:05:51;;;;;;;31.97;30.17;;;;;;;11.54;100.00;102098.97;2010848;70;26253;-71
2022/05/29 06:08:23;;;;;;;30.37;28.83;;;;;;;11.63;100.00;102095.17;1970004;72;26380;-72
2022/05/29 06:10:53;;;;;;;30.83;29.13;;;;;;;11.57;100.00;102090.09;1979721;72;26377;-71
2022/05/29 06:13:23;;;;;;;28.90;27.27;;;;;;;11.65;100.00;102086.84;1979654;72;26200;-71
2022/05/29 06:15:53;;;;;;;28.67;27.27;;;;;;;11.66;100.00;102087.68;1979573;72;26160;-71
2022/05/29 06:18:24;;;;;;;27.73;26.10;;;;;;;11.54;100.00;102086.45;1971631;72;26549;-72
2022/05/29 06:21:00;;;;;;;25.87;24.67;;;;;;;11.58;100.00;102087.61;1976687;72;26316;-71
2022/05/29 06:23:31;;;;;;;26.07;24.60;;;;;;;11.64;100.00;102087.93;1982753;72;26682;-72
2022/05/29 06:26:04;;;;;;;26.37;25.03;;;;;;;11.55;100.00;102086.72;1979798;72;26252;-72
2022/05/29 06:28:34;;;;;;;25.23;23.97;;;;;;;11.91;100.00;102081.55;1985482;72;26287;-72
2022/05/29 06:31:06;;;;;;;24.07;22.80;;;;;;;11.85;100.00;102080.11;1978813;72;26291;-71
2022/05/29 06:33:36;;;;;;;24.00;22.73;;;;;;;11.67;100.00;102085.20;1979287;72;26313;-72
2022/05/29 06:36:12;;;;;;;24.67;23.37;;;;;;;11.79;100.00;102081.18;1979345;72;26181;-71
2022/05/29 06:38:44;;;;;;;23.23;22.07;;;;;;;11.79;100.00;102081.73;1979412;72;26636;-72
2022/05/29 06:44:22;;;;;;;22.97;21.73;;;;;;;11.91;100.00;102078.77;2029964;69;33078;-73
2022/05/29 06:46:52;;;;;;;23.73;22.33;;;;;;;11.93;100.00;102072.40;1940581;73;26644;-72
2022/05/29 06:49:23;;;;;;;22.47;21.40;;;;;;;11.95;100.00;102077.98;1942339;73;26655;-73
2022/05/29 06:51:53;;;;;;;21.47;20.37;;;;;;;11.98;100.00;102064.91;1965914;72;26235;-73
2022/05/29 06:54:23;;;;;;;21.40;20.37;;;;;;;12.00;100.00;102066.89;1930407;73;26232;-72
2022/05/29 06:56:53;;;;;;;20.93;19.83;;;;;;;12.17;100.00;102068.98;1933532;73;26219;-71
2022/05/29 06:59:23;;;;;;;21.23;20.23;;;;;;;12.14;100.00;102063.11;2015446;70;26280;-71
2022/05/29 07:07:30;;;;;;;17.53;16.73;;;;;;;12.55;100.00;102058.66;1992183;70;26811;-71
2022/05/29 07:10:01;;;;;;;17.70;16.87;;;;;;;12.37;100.00;102065.50;1982960;72;26348;-72
2022/05/29 07:12:33;;;;;;;18.03;17.10;;;;;;;12.53;100.00;102065.91;1980899;72;26766;-73
2022/05/29 07:18:10;;;;;;;17.70;16.90;;;;;;;12.58;100.00;102053.38;2058737;69;32635;-72
2022/05/29 07:20:41;;;;;;;18.33;17.50;;;;;;;12.61;100.00;102063.17;2008437;70;26362;-73
2022/05/29 07:23:11;;;;;;;18.20;17.20;;;;;;;12.78;100.00;102049.89;2003926;70;26301;-72
2022/05/29 07:25:42;;;;;;;18.20;17.10;;;;;;;12.91;100.00;102052.19;2011901;70;26748;-72
2022/05/29 07:28:12;;;;;;;16.10;15.40;;;;;;;12.94;100.00;102048.84;2010180;70;26984;-71
2022/05/29 07:30:43;;;;;;;16.43;15.43;;;;;;;13.00;100.00;102048.33;1936859;74;26241;-72
2022/05/29 07:33:14;;;;;;;14.27;13.63;;;;;;;13.12;100.00;102041.44;1931339;73;27500;-71
2022/05/29 07:35:44;;;;;;;16.33;15.50;;;;;;;13.46;100.00;102038.18;1942626;73;26847;-73
2022/05/29 07:38:14;;;;;;;13.80;13.07;;;;;;;13.35;100.00;102049.05;1965298;72;26293;-71
2022/05/29 07:40:44;;;;;;;15.27;14.57;;;;;;;13.47;100.00;102044.89;1928258;73;26774;-71
2022/05/29 07:43:22;;;;;;;15.43;14.83;;;;;;;13.62;100.00;102042.67;1934453;73;26897;-73
2022/05/29 07:45:55;;;;;;;14.53;13.80;;;;;;;13.68;100.00;102040.18;1936752;73;26184;-72
2022/05/29 07:48:27;;;;;;;13.43;12.83;;;;;;;13.95;100.00;102039.91;1931135;73;27417;-71
2022/05/29 07:50:58;;;;;;;13.13;12.50;;;;;;;14.02;100.00;102039.93;1936898;73;26761;-72
2022/05/29 07:53:28;;;;;;;14.40;13.70;;;;;;;14.10;100.00;102033.77;1967042;72;26279;-71
2022/05/29 07:55:58;;;;;;;13.33;12.70;;;;;;;14.22;100.00;102036.83;1944101;73;26224;-71
2022/05/29 07:58:28;;;;;;;12.00;11.50;;;;;;;13.98;100.00;102036.02;2011048;70;26331;-71
2022/05/29 08:00:59;;;;;;;12.80;12.03;;;;;;;14.30;100.00;102026.48;1933870;73;26224;-72
2022/05/29 08:03:29;;;;;;;11.47;10.97;;;;;;;14.43;100.00;102024.53;1933691;73;26357;-73
2022/05/29 08:05:59;;;;;;;11.90;11.40;;;;;;;14.65;100.00;102022.80;1965945;72;26303;-71
2022/05/29 08:08:31;;;;;;;11.73;11.13;;;;;;;14.62;100.00;102030.37;1947063;73;26259;-72
2022/05/29 08:11:03;;;;;;;10.80;10.40;;;;;;;14.59;100.00;102033.16;1933017;74;26216;-72
2022/05/29 08:13:35;;;;;;;10.93;10.43;;;;;;;14.84;100.00;102025.27;1953179;73;26622;-72
2022/05/29 08:16:06;;;;;;;11.37;10.77;;;;;;;14.66;100.00;102031.48;1939581;73;26643;-72
2022/05/29 08:18:36;;;;;;;10.53;10.13;;;;;;;14.66;100.00;102026.73;1930960;74;26248;-71
2022/05/29 08:21:07;;;;;;;11.10;10.50;;;;;;;15.01;100.00;102018.77;1936851;74;26670;-71
2022/05/29 08:23:37;;;;;;;11.23;10.63;;;;;;;15.33;100.00;102018.31;1931006;74;26244;-72
2022/05/29 08:31:43;;;;;;;10.23;9.73;;;;;;;15.43;100.00;102009.30;1901066;75;26251;-72
2022/05/29 08:34:13;;;;;;;10.07;9.57;;;;;;;15.41;100.00;102012.10;1901284;75;26195;-71
2022/05/29 08:36:43;;;;;;;11.43;10.83;;;;;;;15.25;100.00;102019.77;1900891;75;26222;-71
2022/05/29 08:39:15;;;;;;;10.57;10.03;;;;;;;14.75;100.00;102013.00;1936112;74;26200;-73
2022/05/29 08:41:50;;;;;;;10.03;9.47;;;;;;;14.92;100.00;102015.73;1930439;74;26805;-72
2022/05/29 08:44:22;;;;;;;11.03;10.37;;;;;;;14.72;100.00;102010.78;1930334;74;26651;-72
2022/05/29 08:47:00;;;;;;;10.60;10.10;;;;;;;14.32;100.00;102015.31;1936195;74;26184;-71
2022/05/29 08:52:44;;;;;;;11.13;10.37;;;;;;;15.10;100.00;101997.47;2052592;69;32965;-73
2022/05/29 08:58:30;;;;;;;10.60;10.10;;;;;;;16.05;100.00;101983.06;2060177;69;33231;-72
2022/05/29 09:01:06;;;;;;;10.77;10.27;;;;;;;16.04;100.00;101987.86;2015553;70;26578;-70
2022/05/29 09:03:49;;;;;;;10.20;9.80;;;;;;;16.16;100.00;101979.89;2013925;70;26767;-73
2022/05/29 09:06:22;;;;;;;10.87;10.37;;;;;;;16.41;100.00;101980.19;2004937;70;26322;-71
2022/05/29 09:08:56;;;;;;;11.13;10.63;;;;;;;16.29;100.00;101976.95;1976425;72;26289;-73
2022/05/29 09:14:41;;;;;;;10.90;10.33;;;;;;;16.63;100.00;101959.49;2060186;69;32658;-72
2022/05/29 09:17:15;;;;;;;10.93;10.30;;;;;;;16.70;100.00;101957.72;1940343;73;26266;-72
2022/05/29 09:19:50;;;;;;;10.07;9.60;;;;;;;16.95;100.00;101965.80;1936118;73;26216;-71
2022/05/29 09:22:24;;;;;;;9.73;9.27;;;;;;;16.74;100.00;101969.45;1971300;72;26326;-70
2022/05/29 09:25:05;;;;;;;10.27;9.80;;;;;;;17.09;100.00;101958.32;1932393;73;26346;-72
2022/05/29 09:30:42;;;;;;;10.00;9.33;;;;;;;16.99;100.00;101955.64;2060055;69;33075;-70
2022/05/29 09:33:18;;;;;;;9.70;9.30;;;;;;;17.21;100.00;101957.86;2018321;70;26760;-72
2022/05/29 09:35:52;;;;;;;9.67;9.27;;;;;;;16.96;100.00;101956.25;2015111;70;26713;-72
2022/05/29 09:38:27;;;;;;;11.40;10.80;;;;;;;17.45;100.00;101946.00;1932020;73;26206;-72
2022/05/29 09:41:02;;;;;;;11.83;11.20;;;;;;;17.68;100.00;101949.30;2013072;70;26415;-73
2022/05/29 09:43:32;;;;;;;9.90;9.40;;;;;;;17.75;100.00;101939.08;1936749;73;26741;-71
2022/05/29 09:46:19;;;;;;;11.07;10.27;;;;;;;17.53;100.00;101938.28;1932085;73;26308;-73
2022/05/29 09:51:49;;;;;;;11.70;11.03;;;;;;;16.72;100.00;101941.43;1935744;73;26298;-73
2022/05/29 09:54:29;;;;;;;11.03;10.40;;;;;;;16.73;100.00;101941.67;1938049;73;26298;-72
2022/05/29 09:57:10;;;;;;;11.50;11.00;;;;;;;16.61;100.00;101946.31;1970697;72;26257;-72
2022/05/29 09:59:42;;;;;;;9.83;9.43;;;;;;;16.76;100.00;101941.94;1925189;72;26671;-70
2022/05/29 10:05:30;;;;;;;10.77;10.27;;;;;;;16.69;100.00;101939.20;2033633;69;32693;-73
2022/05/29 10:08:04;;;;;;;11.53;10.83;;;;;;;16.77;100.00;101941.38;1980575;70;26298;-71
2022/05/29 10:10:36;;;;;;;10.90;10.27;;;;;;;16.97;100.00;101934.08;1973634;72;27350;-73
2022/05/29 10:13:06;;;;;;;10.23;9.63;;;;;;;17.04;100.00;101929.47;1980884;72;26318;-73
2022/05/29 10:15:40;;;;;;;10.10;9.60;;;;;;;17.03;100.00;101923.02;1911595;74;26304;-71
2022/05/29 10:21:44;;;;;;;10.13;9.73;;;;;;;17.69;100.00;101916.41;2042844;69;33163;-73
2022/05/29 10:24:17;;;;;;;9.70;9.10;;;;;;;17.58;100.00;101918.58;2016983;70;26333;-72
2022/05/29 10:26:51;;;;;;;9.70;9.20;;;;;;;17.77;100.00;101916.27;2030515;70;26481;-72
2022/05/29 10:29:25;;;;;;;10.40;9.67;;;;;;;17.21;100.00;101917.98;2010153;70;26289;-72
2022/05/29 10:31:56;;;;;;;9.90;9.30;;;;;;;16.69;100.00;101927.98;1971244;72;26217;-73
2022/05/29 10:34:30;;;;;;;9.73;9.27;;;;;;;16.38;100.00;101929.75;1934088;73;26334;-71
2022/05/29 10:37:03;;;;;;;9.50;8.90;;;;;;;16.57;100.00;101927.55;1931170;74;26292;-72
2022/05/29 10:39:35;;;;;;;8.87;8.37;;;;;;;16.88;100.00;101921.01;1934259;73;26223;-72
2022/05/29 10:42:06;;;;;;;9.10;8.70;;;;;;;16.59;100.00;101919.15;2013354;70;26665;-72
2022/05/29 10:44:46;;;;;;;9.87;9.37;;;;;;;16.43;100.00;101925.21;2014378;70;26239;-71
2022/05/29 10:47:24;;;;;;;9.10;8.60;;;;;;;16.33;100.00;101913.54;1973383;72;26284;-72
2022/05/29 10:50:04;;;;;;;10.43;9.80;;;;;;;16.83;100.00;101917.13;1936435;74;24203;-73
2022/05/29 10:52:51;;;;;;;9.67;9.17;;;;;;;16.94;100.00;101905.21;1939702;73;26224;-71
2022/05/29 10:55:31;;;;;;;9.17;8.60;;;;;;;17.41;100.00;101899.16;1930552;73;26944;-74
2022/05/29 10:58:17;;;;;;;10.30;9.70;;;;;;;17.41;100.00;101899.16;1937129;73;27547;-71
2022/05/29 11:00:54;;;;;;;9.10;8.60;;;;;;;17.29;100.00;101902.41;1935531;73;24222;-71
2022/05/29 11:03:52;;;;;;;9.83;9.23;;;;;;;17.17;100.00;101897.27;1929385;73;26703;-72
2022/05/29 11:06:34;;;;;;;9.17;8.77;;;;;;;16.97;100.00;101898.14;1943318;73;26805;-71
2022/05/29 11:12:25;;;;;;;9.10;8.70;;;;;;;16.74;100.00;101893.69;2059503;69;32667;-72
2022/05/29 11:19:02;;;;;;;10.17;9.67;;;;;;;16.81;100.00;101887.13;2048221;69;32743;-69
2022/05/29 11:24:53;;;;;;;9.40;9.00;;;;;;;16.53;100.00;101890.84;2043786;69;32557;-71
2022/05/29 11:27:41;;;;;;;10.23;9.73;;;;;;;16.61;100.00;101883.20;1940415;73;26213;-71
2022/05/29 11:30:11;;;;;;;9.70;9.30;;;;;;;16.70;100.00;101877.75;2003944;70;26372;-71
2022/05/29 11:32:58;;;;;;;9.77;9.30;;;;;;;16.62;100.00;101883.47;1924611;73;26281;-73
2022/05/29 11:35:40;;;;;;;10.20;9.70;;;;;;;16.74;100.00;101874.61;2022378;70;26205;-73
2022/05/29 11:38:24;;;;;;;10.20;9.70;;;;;;;16.90;100.00;101873.24;2017401;70;26228;-71
2022/05/29 11:40:58;;;;;;;9.80;9.30;;;;;;;17.02;100.00;101863.83;2016202;70;26642;-73
2022/05/29 11:43:31;;;;;;;9.90;9.40;;;;;;;17.23;100.00;101863.77;1933423;73;26266;-73
2022/05/29 11:51:46;;;;;;;9.90;9.30;;;;;;;16.90;100.00;101856.41;1933455;73;26348;-71
2022/05/29 11:54:22;;;;;;;9.90;9.40;;;;;;;16.52;100.00;101861.13;1962684;72;26721;-71
2022/05/29 11:56:56;;;;;;;9.77;9.23;;;;;;;16.74;100.00;101847.39;1929872;73;26282;-73
2022/05/29 12:02:41;;;;;;;9.63;9.20;;;;;;;16.90;100.00;101852.20;2060249;69;32590;-71
2022/05/29 12:05:19;;;;;;;9.50;9.10;;;;;;;16.76;100.00;101851.30;1943648;73;26886;-70
2022/05/29 12:07:52;;;;;;;10.10;9.50;;;;;;;16.47;100.00;101850.00;1951270;72;26233;-71
2022/05/29 12:13:33;;;;;;;9.80;9.40;;;;;;;16.80;100.00;101839.73;2044573;69;33278;-72
2022/05/29 12:16:06;;;;;;;9.67;9.20;;;;;;;16.60;100.00;101842.84;2017631;71;26346;-72
2022/05/29 12:18:45;;;;;;;10.93;10.40;;;;;;;16.68;100.00;101838.80;2011677;70;26711;-72
2022/05/29 12:21:18;;;;;;;10.50;10.00;;;;;;;16.68;100.00;101837.39;1930677;74;26251;-71
2022/05/29 12:23:51;;;;;;;10.23;9.73;;;;;;;16.65;100.00;101839.94;1937300;73;26253;-72
2022/05/29 12:26:25;;;;;;;10.23;9.70;;;;;;;16.62;100.00;101836.34;1965326;72;26721;-72
2022/05/29 12:28:59;;;;;;;10.10;9.70;;;;;;;16.42;100.00;101833.80;1936994;73;26387;-70
2022/05/29 12:31:33;;;;;;;10.50;10.00;;;;;;;16.44;100.00;101837.11;1937106;74;26680;-71
2022/05/29 12:34:03;;;;;;;10.10;9.70;;;;;;;16.39;100.00;101833.24;1966321;72;26199;-71
2022/05/29 12:36:43;;;;;;;11.03;10.40;;;;;;;16.23;100.00;101830.37;1938189;74;26256;-71
2022/05/29 12:39:21;;;;;;;10.23;9.83;;;;;;;16.18;100.00;101830.99;1932016;73;26293;-71
2022/05/29 12:42:13;;;;;;;11.47;10.97;;;;;;;16.42;100.00;101816.97;1934630;73;26257;-71
2022/05/29 12:45:02;;;;;;;10.40;9.90;;;;;;;16.67;100.00;101817.48;2016078;70;26658;-71
2022/05/29 12:51:59;;;;;;;10.03;9.57;;;;;;;16.78;100.00;101800.74;2052827;69;33049;-71
2022/05/29 12:55:17;;;;;;;9.67;9.37;;;;;;;16.47;100.00;101803.72;2017141;71;26224;-73
2022/05/29 12:58:40;;;;;;;9.87;9.33;;;;;;;16.47;100.00;101805.69;1967427;70;26295;-73
2022/05/29 13:01:18;;;;;;;10.10;9.50;;;;;;;16.37;100.00;101801.88;1933745;74;26596;-71
2022/05/29 13:04:20;;;;;;;9.73;9.27;;;;;;;16.73;100.00;101792.96;1944581;73;26217;-71
2022/05/29 13:07:25;;;;;;;10.10;9.70;;;;;;;16.58;100.00;101787.59;1939728;73;26791;-71
2022/05/29 13:13:23;;;;;;;10.90;10.40;;;;;;;17.04;100.00;101779.29;2045269;69;32671;-71
2022/05/29 13:15:53;;;;;;;11.00;10.20;;;;;;;17.55;100.00;101783.44;1926878;73;24161;-70
2022/05/29 13:18:39;;;;;;;10.60;10.00;;;;;;;17.55;100.00;101778.66;1932681;73;26312;-72
2022/05/29 13:21:15;;;;;;;10.53;10.13;;;;;;;17.55;100.00;101778.66;1927306;73;26209;-70
2022/05/29 13:23:48;;;;;;;10.67;10.17;;;;;;;17.70;100.00;101767.73;2025898;71;24707;-71
2022/05/29 13:26:25;;;;;;;10.93;10.40;;;;;;;17.79;100.00;101768.69;2021289;70;26228;-71
2022/05/29 13:29:00;;;;;;;10.30;9.90;;;;;;;18.23;100.00;101763.80;2012125;70;26259;-72
2022/05/29 13:32:05;;;;;;;10.30;9.80;;;;;;;18.23;100.00;101763.80;1971475;72;26238;-71
2022/05/29 13:34:36;;;;;;;10.40;10.00;;;;;;;18.27;100.00;101753.59;1901976;73;24211;-71
2022/05/29 13:37:10;;;;;;;9.60;9.20;;;;;;;18.04;100.00;101749.89;1936443;73;26258;-72
2022/05/29 13:40:23;;;;;;;10.03;9.50;;;;;;;18.04;100.00;101749.89;1934728;73;24169;-71
2022/05/29 13:42:59;;;;;;;9.57;9.17;;;;;;;17.90;100.00;101751.02;1948886;73;26227;-72
2022/05/29 13:46:08;;;;;;;10.47;9.87;;;;;;;18.16;100.00;101742.31;1939678;73;24168;-72
2022/05/29 13:49:01;;;;;;;10.47;9.97;;;;;;;18.01;100.00;101740.66;1936050;73;24172;-72
2022/05/29 13:51:41;;;;;;;10.07;9.47;;;;;;;17.77;100.00;101744.83;1938349;73;24561;-71
2022/05/29 13:54:10;;;;;;;10.10;9.60;;;;;;;17.68;100.00;101727.30;2005025;70;24190;-72